Hauptseite
METAR-TAF:

METAR-TAF

Flughäfen :

Charleroi, Belgien

Flughafen Brüssel-Charleroi

Breite: 50-28N, Länge: 004-27E, Höhe: 187 m

Beobachtung

Neuester Wetterbericht von vor 10 Minuten, um 08:50 UTC
Wind 11 kt aus West/Südwest
Temperatur 12°C
Luftfeuchtigkeit 82%
Luftdruck 1017 hPa
Sichtweite 10 km oder mehr
Durchbrochene Bewölkung in der Höhe von 1500 ft

METAR: EBCI 230850Z 25011KT 9999 BKN015 12/09 Q1017 NOSIG

Zeit: 11:00 (09:00 UTC)

Prognose

Neuester Wetterbericht von vor 3 Stunden und 40 Minuten, um 05:20 UTC
Gültige Prognose vom 23 um 06 UTC bis 24 um 12 UTC
Wind 8 kt aus West
Sichtweite 10 km oder mehr
Leicht bewölkt in der Höhe von 3000 ft

TAF: EBCI 230520Z 2306/2412 26008KT 9999 FEW030

Wetterbeobachtungen und Prognosen von mehr als 4000 Flughäfen (METAR und TAF Bericht).

Die verfügbaren Stationen werden durch gelbe und rote Markierungen auf der Karte dargestellt.

Führen Sie die Maus auf sie, um den Namen der Station zu sehen.

Darauf klicken, um die Beobachtung von Wetterbeobachtungen und Prognosen zu sehen.

Um die Karte zu ändern : klicken Sie auf den grünen Tasten mit einem schwarzen Kreuz Zum Vergrößern, auf den grünen Button mit einem Gedankenstrich zu verkleinern, oder auf die grünen Pfeile für benachbarte Karten.


METAR-TAF: